Flight Track Log - Related Links

Times and Time Zones

All times are in EDT time to prevent confusion due to time zone crossing. See the N6ZQ flight status page for this flight to view local times or setup timezone preferences in your user account.

Time Position Orientation Groundspeed Altitude Reporting Facility
EDT Latitude Longitude Course Direction KTS MPH feet Rate Location/Type
Fri 12:23:44 PM 38.3333 -77.3500 322° Northwest 177 204 2,200  Level Potomac TRACON
Fri 12:24:44 PM 38.3500 -77.3667 322° Northwest 147 169 3,000 750 Climbing Potomac TRACON
Fri 12:25:44 PM 38.3667 -77.4167 293° West 171 197 3,700 900 Climbing Potomac TRACON
Fri 12:26:44 PM 38.4000 -77.4667 310° West 145 167 4,800 1,100 Climbing Potomac TRACON
Fri 12:27:44 PM 38.4167 -77.5167 293° West 131 151 5,900 600 Climbing Potomac TRACON
Fri 12:28:44 PM 38.4333 -77.5667 293° West 162 186 6,000 50 Climbing Potomac TRACON
Fri 12:29:44 PM 38.4500 -77.6167 293° West 186 214 6,000  Level Potomac TRACON
Fri 12:30:44 PM 38.4833 -77.6667 310° West 190 219 6,000  Level Potomac TRACON
Fri 12:31:44 PM 38.5000 -77.7333 288° West 190 219 6,000 50 Level Potomac TRACON
Fri 12:32:44 PM 38.5500 -77.7833 322° Northwest 205 236 6,100  Climbing Potomac TRACON
Fri 12:33:44 PM 38.6000 -77.8167 332° Northwest 204 235 6,000 -50 Descending Potomac TRACON
Fri 12:34:44 PM 38.6333 -77.8667 310° West 199 229 6,000 50 Level Potomac TRACON
Fri 12:35:44 PM 38.6383 -77.9281 276° West 199 229 6,100 298 Climbing Washington Center
Fri 12:36:45 PM 38.6331 -77.9861 263° West 183 211 6,600 763 Climbing Washington Center
Fri 12:37:42 PM 38.6303 -78.0286 265° West 155 178 7,600 769 Climbing Washington Center
Fri 12:38:42 PM 38.6294 -78.0686 268° West 129 148 8,100 250 Climbing Washington Center
Fri 12:39:42 PM 38.6261 -78.1217 265° West 129 148 8,100 -49 Level Washington Center
Fri 12:40:44 PM 38.6231 -78.1744 266° West 147 169 8,000 -49 Descending Washington Center
Fri 12:41:44 PM 38.6197 -78.2303 266° West 153 176 8,000  Level Washington Center
Fri 12:42:42 PM 38.6164 -78.2861 266° West 158 182 8,000  Level Washington Center
Fri 12:43:43 PM 38.6131 -78.3389 265° West 158 182 8,000 50 Level Washington Center
Fri 12:44:43 PM 38.6097 -78.3894 265° West 158 182 8,100 50 Climbing Washington Center
Fri 12:45:44 PM 38.6067 -78.4397 266° West 158 182 8,100 248 Level Washington Center
Fri 12:46:44 PM 38.6033 -78.4847 265° West 147 169 8,600 458 Climbing Washington Center
Fri 12:47:42 PM 38.6003 -78.5272 265° West 136 157 9,000 504 Climbing Washington Center
Fri 12:48:43 PM 38.5972 -78.5694 265° West 126 145 9,600 492 Climbing Washington Center
Fri 12:49:44 PM 38.5942 -78.6092 264° West 120 138 10,000 248 Climbing Washington Center
Fri 12:50:44 PM 38.5908 -78.6569 265° West 127 146 10,100  Climbing Washington Center
Fri 12:51:42 PM 38.5894 -78.7125 268° West 141 162 10,000 -50 Descending Washington Center
Fri 12:52:43 PM 38.5861 -78.7603 265° West 146 168 10,000  Level Washington Center
Fri 12:53:43 PM 38.5825 -78.8133 265° West 151 174 10,000  Level Washington Center
Fri 12:54:44 PM 38.5789 -78.8689 265° West 151 174 10,000  Level Washington Center
Fri 12:55:44 PM 38.5756 -78.9192 265° West 151 174 10,000  Level Washington Center
Fri 12:56:42 PM 38.5719 -78.9722 265° West 151 174 10,000  Level Washington Center
Fri 12:57:42 PM 38.5706 -79.0225 268° West 151 174 10,000  Level Washington Center
Fri 12:58:43 PM 38.5669 -79.0703 264° West 146 168 10,000  Level Washington Center
Fri 12:59:43 PM 38.5614 -79.1231 262° West 146 168 10,000  Level Washington Center
Fri 01:00:44 PM 38.5600 -79.1708 268° West 141 162 10,000  Level Washington Center
Fri 01:01:44 PM 38.5564 -79.2183 264° West 141 162 10,000  Level Washington Center
Fri 01:02:42 PM 38.5525 -79.2739 265° West 149 171 10,000  Level Washington Center
Fri 01:03:42 PM 38.5511 -79.3217 268° West 149 171 10,000  Level Washington Center
Fri 01:04:43 PM 38.5475 -79.3719 265° West 144 166 10,000  Level Washington Center
Fri 01:05:44 PM 38.5417 -79.4247 262° West 144 166 10,000  Level Washington Center
Fri 01:06:42 PM 38.5403 -79.4672 268° West 144 166 10,000  Level Washington Center
Fri 01:07:42 PM 38.5344 -79.5200 262° West 144 166 10,000  Level Washington Center
Fri 01:08:43 PM 38.5308 -79.5675 264° West 144 166 10,000  Level Washington Center
Fri 01:09:43 PM 38.5292 -79.6178 268° West 144 166 10,000  Level Washington Center
Fri 01:10:44 PM 38.5250 -79.6733 265° West 144 166 10,000  Level Washington Center
Fri 01:11:44 PM 38.5214 -79.7236 265° West 144 166 10,000  Level Washington Center
Fri 01:12:44 PM 38.5156 -79.7711 261° West 144 166 10,000  Level Washington Center
Fri 01:13:42 PM 38.5136 -79.8214 267° West 144 166 10,000  Level Washington Center
Fri 01:14:42 PM 38.5100 -79.8661 264° West 144 166 10,000  Level Washington Center
Fri 01:15:43 PM 38.5042 -79.9164 262° West 144 166 10,000  Level Washington Center
Fri 01:16:44 PM 38.5022 -79.9692 267° West 144 166 10,000  Level Washington Center
Fri 01:17:42 PM 38.4981 -80.0275 265° West 144 166 10,000 51 Level Washington Center
Fri 01:18:42 PM 38.4939 -80.0775 264° West 144 166 10,100 50 Climbing Washington Center
Fri 01:19:43 PM 38.4878 -80.1303 262° West 144 166 10,100  Level Washington Center
Fri 01:20:43 PM 38.4858 -80.1833 267° West 144 166 10,100  Level Washington Center
Fri 01:21:44 PM 38.4800 -80.2278 260° West 144 166 10,100  Level Washington Center
Fri 01:22:42 PM 38.4758 -80.2781 264° West 144 166 10,100  Level Washington Center
Fri 01:23:44 PM 38.4717 -80.3308 264° West 144 166 10,100  Level Washington Center
Fri 01:24:42 PM 38.4675 -80.3836 264° West 144 166 10,100 -60 Level Washington Center
Fri 01:25:24 PM 38.4664 -80.4158 267° West 148 170 10,000 -58 Descending Indianapolis Center
Fri 01:26:26 PM 38.4619 -80.4664 264° West 147 169 10,000  Level Indianapolis Center
Fri 01:27:28 PM 38.4572 -80.5186 263° West 147 169 10,000  Level Indianapolis Center
Fri 01:28:30 PM 38.4531 -80.5806 265° West 147 169 10,000  Level Indianapolis Center
Fri 01:29:32 PM 38.4489 -80.6325 264° West 147 169 10,000  Level Indianapolis Center
Fri 01:30:34 PM 38.4442 -80.6856 264° West 150 173 10,000  Level Indianapolis Center
Fri 01:31:36 PM 38.4394 -80.7383 263° West 150 173 10,000  Level Indianapolis Center
Fri 01:32:38 PM 38.4361 -80.7917 265° West 151 174 10,000  Level Indianapolis Center
Fri 01:33:40 PM 38.4303 -80.8428 262° West 147 169 10,000  Level Indianapolis Center
Fri 01:34:42 PM 38.4275 -80.8944 266° West 145 167 10,000  Level Indianapolis Center
Fri 01:35:44 PM 38.4219 -80.9572 264° West 148 170 10,000  Level Indianapolis Center
Fri 01:36:46 PM 38.4172 -81.0094 263° West 148 170 10,000  Level Indianapolis Center
Fri 01:37:48 PM 38.4133 -81.0617 265° West 148 170 10,000  Level Indianapolis Center
Fri 01:38:49 PM 38.4081 -81.1139 263° West 150 173 10,000  Level Indianapolis Center
Fri 01:39:51 PM 38.4042 -81.1650 264° West 144 166 10,000  Level Indianapolis Center
Fri 01:40:53 PM 38.3992 -81.2175 263° West 148 170 10,000  Level Indianapolis Center
Fri 01:41:55 PM 38.3947 -81.2694 264° West 148 170 10,000  Level Indianapolis Center
Fri 01:42:57 PM 38.3911 -81.3217 265° West 147 169 10,000  Level Indianapolis Center
Fri 01:43:59 PM 38.3853 -81.3833 263° West 146 168 10,000  Level Indianapolis Center
Fri 01:45:01 PM 38.3800 -81.4353 263° West 147 169 10,000  Level Indianapolis Center
Fri 01:46:03 PM 38.3761 -81.4872 265° West 147 169 10,000  Level Indianapolis Center
Fri 01:47:05 PM 38.3708 -81.5389 263° West 147 169 10,000  Level Indianapolis Center
Fri 01:48:07 PM 38.3667 -81.5906 264° West 146 168 10,000  Level Indianapolis Center
Fri 01:49:09 PM 38.3617 -81.6408 263° West 144 166 10,000  Level Indianapolis Center
Fri 01:50:11 PM 38.3578 -81.6919 264° West 143 165 10,000  Level Indianapolis Center
Fri 01:51:13 PM 38.3525 -81.7436 263° West 145 167 10,000  Level Indianapolis Center
Fri 01:52:15 PM 38.3592 -81.8050 278° West 146 168 10,000  Level Indianapolis Center
Fri 01:53:16 PM 38.3719 -81.8569 287° West 153 176 10,000  Level Indianapolis Center
Fri 01:54:18 PM 38.3847 -81.9083 288° West 152 175 10,000  Level Indianapolis Center
Fri 01:55:20 PM 38.3972 -81.9583 288° West 149 171 10,000  Level Indianapolis Center
Fri 01:56:22 PM 38.4092 -82.0094 287° West 150 173 10,000  Level Indianapolis Center
Fri 01:57:24 PM 38.4217 -82.0589 288° West 147 169 10,000  Level Indianapolis Center
Fri 01:58:26 PM 38.4344 -82.1103 288° West 150 173 10,000  Level Indianapolis Center
Fri 01:59:27 PM 38.4469 -82.1617 287° West 151 174 10,000  Level Indianapolis Center
Fri 02:00:29 PM 38.4617 -82.2236 287° West 152 175 10,000  Level Indianapolis Center
Fri 02:01:31 PM 38.4750 -82.2736 289° West 150 173 10,000  Level Indianapolis Center
Fri 02:02:33 PM 38.4869 -82.3239 287° West 148 170 10,000  Level Indianapolis Center
Fri 02:03:35 PM 38.4992 -82.3775 286° West 155 178 10,000  Level Indianapolis Center
Fri 02:04:36 PM 38.5122 -82.4297 288° West 155 178 10,000  Level Indianapolis Center
Fri 02:05:38 PM 38.5250 -82.4803 288° West 151 174 10,000  Level Indianapolis Center
Fri 02:06:40 PM 38.5383 -82.5350 287° West 152 175 10,000  Level Indianapolis Center
Fri 02:07:42 PM 38.5497 -82.5864 286° West 152 175 10,000  Level Indianapolis Center
Fri 02:08:44 PM 38.5647 -82.6475 287° West 155 178 10,000  Level Indianapolis Center
Fri 02:09:46 PM 38.5775 -82.7000 287° West 154 177 10,000  Level Indianapolis Center
Fri 02:10:48 PM 38.5900 -82.7500 288° West 150 173 10,000  Level Indianapolis Center
Fri 02:11:50 PM 38.6019 -82.8028 286° West 153 176 10,000  Level Indianapolis Center
Fri 02:12:51 PM 38.6147 -82.8550 287° West 153 176 10,000  Level Indianapolis Center
Fri 02:13:53 PM 38.6297 -82.9186 287° West 159 183 10,000  Level Indianapolis Center
Fri 02:14:55 PM 38.6414 -82.9703 286° West 154 177 10,000  Level Indianapolis Center
Fri 02:15:57 PM 38.6450 -83.0217 275° West 148 170 10,000  Level Indianapolis Center
Fri 02:16:59 PM 38.6442 -83.0772 269° West 155 178 10,000  Level Indianapolis Center
Fri 02:18:01 PM 38.6458 -83.1306 272° West 152 175 10,000  Level Indianapolis Center
Fri 02:19:03 PM 38.6458 -83.1836 270° West 150 173 10,000  Level Indianapolis Center
Fri 02:20:05 PM 38.6461 -83.2456 270° West 150 173 10,000  Level Indianapolis Center
Fri 02:21:07 PM 38.6467 -83.3017 271° West 155 178 10,000  Level Indianapolis Center
Fri 02:22:09 PM 38.6472 -83.3544 271° West 151 174 10,000  Level Indianapolis Center
Fri 02:23:11 PM 38.6475 -83.4131 270° West 151 174 10,000  Level Indianapolis Center
Fri 02:24:13 PM 38.6481 -83.4686 271° West 154 177 10,000  Level Indianapolis Center
Fri 02:25:15 PM 38.6478 -83.5253 270° West 149 171 10,000  Level Indianapolis Center
Fri 02:26:17 PM 38.6478 -83.5744 270° West 150 173 10,000  Level Indianapolis Center
Fri 02:27:19 PM 38.6489 -83.6303 271° West 156 180 10,000  Level Indianapolis Center
Fri 02:28:21 PM 38.6492 -83.6831 270° West 150 173 10,000  Level Indianapolis Center
Fri 02:29:23 PM 38.6492 -83.7472 270° West 151 174 10,000 48 Level Indianapolis Center
Fri 02:30:25 PM 38.6489 -83.8031 270° West 154 177 10,100  Climbing Indianapolis Center
Fri 02:31:27 PM 38.6492 -83.8556 270° West 149 171 10,000  Descending Indianapolis Center
Fri 02:32:29 PM 38.6492 -83.9089 270° West 150 173 10,100  Climbing Indianapolis Center
Fri 02:33:31 PM 38.6489 -83.9639 270° West 151 174 10,000 -48 Descending Indianapolis Center
Fri 02:34:33 PM 38.6492 -84.0197 270° West 154 177 10,000  Level Indianapolis Center
Fri 02:35:35 PM 38.6494 -84.0811 270° West 151 174 10,000 48 Level Indianapolis Center
Fri 02:36:37 PM 38.6492 -84.1347 270° West 150 173 10,100  Climbing Indianapolis Center
Fri 02:37:39 PM 38.6494 -84.1908 270° West 155 178 10,000 -48 Descending Indianapolis Center
Fri 02:38:41 PM 38.6497 -84.2464 270° West 155 178 10,000  Level Indianapolis Center
Fri 02:39:43 PM 38.6500 -84.2997 270° West 152 175 10,000  Level Indianapolis Center
Fri 02:40:45 PM 38.6478 -84.3558 267° West 156 180 10,000 48 Level Indianapolis Center
Fri 02:41:47 PM 38.6450 -84.4194 267° West 153 176 10,100  Climbing Indianapolis Center
Fri 02:42:49 PM 38.6419 -84.4733 266° West 153 176 10,000 -48 Descending Indianapolis Center
Fri 02:43:51 PM 38.6403 -84.5300 268° West 157 181 10,000  Level Indianapolis Center
Fri 02:44:54 PM 38.6361 -84.5847 264° West 156 180 10,000  Level Indianapolis Center
Fri 02:45:56 PM 38.6344 -84.6464 268° West 151 174 10,000  Level Indianapolis Center
Fri 02:46:58 PM 38.6331 -84.7019 268° West 155 178 10,000  Level Indianapolis Center
Fri 02:47:59 PM 38.6303 -84.7547 266° West 150 173 10,000  Level Indianapolis Center
Fri 02:49:01 PM 38.6267 -84.8122 265° West 159 183 10,000 48 Level Indianapolis Center
Fri 02:50:03 PM 38.6253 -84.8669 268° West 156 180 10,100  Climbing Indianapolis Center
Fri 02:51:05 PM 38.6231 -84.9219 267° West 155 178 10,000 -48 Descending Indianapolis Center
Fri 02:52:07 PM 38.6203 -84.9869 267° West 156 180 10,000  Level Indianapolis Center
Fri 02:53:09 PM 38.6167 -85.0428 265° West 156 180 10,000  Level Indianapolis Center
Fri 02:54:11 PM 38.6147 -85.0981 267° West 157 181 10,000  Level Indianapolis Center
Fri 02:55:13 PM 38.6117 -85.1539 266° West 157 181 10,000  Level Indianapolis Center
Fri 02:56:15 PM 38.6083 -85.2117 266° West 156 180 10,000  Level Indianapolis Center
Fri 02:57:17 PM 38.6067 -85.2675 268° West 156 180 10,000  Level Indianapolis Center
Fri 02:58:19 PM 38.6053 -85.3225 268° West 155 178 10,000  Level Indianapolis Center
Fri 02:59:21 PM 38.6019 -85.3786 266° West 157 181 10,000  Level Indianapolis Center
Fri 03:00:23 PM 38.5981 -85.4344 265° West 157 181 10,000  Level Indianapolis Center
Fri 03:01:25 PM 38.5964 -85.4992 268° West 152 175 10,000  Level Indianapolis Center
Fri 03:02:27 PM 38.5928 -85.5556 265° West 157 181 10,000  Level Indianapolis Center
Fri 03:03:28 PM 38.5897 -85.6106 266° West 155 178 10,000  Level Indianapolis Center
Fri 03:04:30 PM 38.5869 -85.6658 266° West 156 180 10,000  Level Indianapolis Center
Fri 03:05:32 PM 38.5861 -85.7197 269° West 153 176 10,000  Level Indianapolis Center
Fri 03:06:34 PM 38.5844 -85.7722 268° West 149 171 10,000  Level Indianapolis Center
Fri 03:07:36 PM 38.5833 -85.8256 268° West 149 171 10,000  Level Indianapolis Center
Fri 03:08:38 PM 38.5806 -85.8886 267° West 148 170 10,000  Level Indianapolis Center
Fri 03:09:40 PM 38.5789 -85.9428 268° West 150 173 10,000  Level Indianapolis Center
Fri 03:10:42 PM 38.5764 -85.9978 267° West 153 176 10,000  Level Indianapolis Center
Fri 03:11:44 PM 38.5750 -86.0497 268° West 149 171 10,000  Level Indianapolis Center
Fri 03:12:46 PM 38.5736 -86.1050 268° West 153 176 10,000  Level Indianapolis Center
Fri 03:13:48 PM 38.5711 -86.1603 267° West 155 178 10,000  Level Indianapolis Center
Fri 03:14:50 PM 38.5683 -86.2136 266° West 152 175 10,000  Level Indianapolis Center
Fri 03:15:52 PM 38.5664 -86.2797 268° West 153 176 10,000  Level Indianapolis Center
Fri 03:16:54 PM 38.5647 -86.3336 268° West 152 175 10,000  Level Indianapolis Center
Fri 03:17:56 PM 38.5625 -86.3881 267° West 153 176 10,000  Level Indianapolis Center
Fri 03:18:58 PM 38.5600 -86.4428 267° West 154 177 10,000  Level Indianapolis Center
Fri 03:20:00 PM 38.5586 -86.4983 268° West 155 178 10,000  Level Indianapolis Center
Fri 03:21:02 PM 38.5561 -86.5536 267° West 155 178 10,000  Level Indianapolis Center
Fri 03:22:04 PM 38.5542 -86.6089 267° West 155 178 10,000  Level Indianapolis Center
Fri 03:23:06 PM 38.5511 -86.6744 267° West 154 177 10,000  Level Indianapolis Center
Fri 03:24:08 PM 38.5486 -86.7286 267° West 154 177 10,000  Level Indianapolis Center
Fri 03:25:10 PM 38.5467 -86.7836 267° West 154 177 10,000  Level Indianapolis Center
Fri 03:26:12 PM 38.5442 -86.8389 267° West 155 178 10,000  Level Indianapolis Center
Fri 03:27:14 PM 38.5419 -86.8956 267° West 159 183 10,000  Level Indianapolis Center
Fri 03:28:16 PM 38.5397 -86.9514 267° West 158 182 10,000  Level Indianapolis Center
Fri 03:29:18 PM 38.5364 -87.0178 266° West 157 181 10,000  Level Indianapolis Center
Fri 03:30:20 PM 38.5342 -87.0719 267° West 155 178 10,000  Level Indianapolis Center
Fri 03:31:22 PM 38.5314 -87.1269 266° West 155 178 10,000  Level Indianapolis Center
Fri 03:32:24 PM 38.5294 -87.1819 267° West 156 180 10,000  Level Indianapolis Center
Fri 03:33:26 PM 38.5269 -87.2364 267° West 155 178 10,000  Level Indianapolis Center
Fri 03:34:28 PM 38.5239 -87.2908 266° West 155 178 10,000  Level Indianapolis Center
Fri 03:35:30 PM 38.5211 -87.3558 267° West 153 176 10,000  Level Indianapolis Center
Fri 03:36:33 PM 38.5186 -87.4106 267° West 154 177 10,000  Level Indianapolis Center
Fri 03:37:35 PM 38.5158 -87.4650 266° West 154 177 10,000  Level Indianapolis Center
Fri 03:38:37 PM 38.5133 -87.5206 267° West 156 180 10,000  Level Indianapolis Center
Fri 03:39:39 PM 38.5108 -87.5758 267° West 155 178 10,000  Level Indianapolis Center
Fri 03:40:41 PM 38.5083 -87.6303 267° West 155 178 10,000  Level Indianapolis Center
Fri 03:41:43 PM 38.5058 -87.6867 267° West 156 180 10,000  Level Indianapolis Center
Fri 03:42:45 PM 38.5022 -87.7528 266° West 156 180 10,000  Level Indianapolis Center
Fri 03:43:47 PM 38.4994 -87.8089 266° West 157 181 10,000  Level Indianapolis Center
Fri 03:44:49 PM 38.4969 -87.8644 267° West 157 181 10,000  Level Indianapolis Center
Fri 03:45:51 PM 38.4942 -87.9219 266° West 160 184 10,000  Level Indianapolis Center
Fri 03:46:53 PM 38.4914 -87.9778 266° West 159 183 10,000  Level Indianapolis Center
Fri 03:47:55 PM 38.4872 -88.0336 265° West 158 182 10,000  Level Indianapolis Center
Fri 03:48:57 PM 38.4847 -88.0911 267° West 161 185 10,000  Level Indianapolis Center
Fri 03:49:59 PM 38.4811 -88.1569 266° West 156 180 10,000  Level Indianapolis Center
Fri 03:51:11 PM 38.4778 -88.2256 266° West 160 184 10,000  Level Kansas City Center
Fri 03:52:13 PM 38.4753 -88.2817 267° West 159 183 10,000  Level Kansas City Center
Fri 03:53:15 PM 38.4731 -88.3386 267° West 160 184 10,000  Level Kansas City Center
Fri 03:54:17 PM 38.4689 -88.3958 265° West 161 185 10,000  Level Kansas City Center
Fri 03:55:20 PM 38.4650 -88.4531 265° West 162 186 10,000  Level Kansas City Center
Fri 03:56:22 PM 38.4606 -88.5106 264° West 163 188 10,000  Level Kansas City Center
Fri 03:57:24 PM 38.4558 -88.5686 264° West 164 189 10,000  Level Kansas City Center
Fri 03:58:26 PM 38.4519 -88.6372 266° West 162 186 10,000 48 Level Kansas City Center
Fri 03:59:30 PM 38.4478 -88.7006 265° West 163 188 10,100  Climbing Kansas City Center
Fri 04:00:32 PM 38.4439 -88.7581 265° West 164 189 10,000 -48 Descending Kansas City Center
Fri 04:01:34 PM 38.4408 -88.8147 266° West 162 186 10,000  Level Kansas City Center
Fri 04:02:36 PM 38.4375 -88.8758 266° West 160 184 10,000  Level Kansas City Center
Fri 04:03:38 PM 38.4333 -88.9339 265° West 163 188 10,000  Level Kansas City Center
Fri 04:04:40 PM 38.4294 -88.9961 265° West 164 189 10,000  Level Kansas City Center
Fri 04:05:42 PM 38.4258 -89.0539 265° West 164 189 10,000 -242 Level Kansas City Center
Fri 04:06:44 PM 38.4219 -89.1192 266° West 171 197 9,500 -532 Descending Kansas City Center
Fri 04:07:46 PM 38.4236 -89.1847 272° West 184 212 8,900 -581 Descending Kansas City Center
Fri 04:08:48 PM 38.4442 -89.2464 293° West 187 215 8,300 -581 Descending Kansas City Center
Fri 04:09:50 PM 38.4628 -89.3117 290° West 182 209 7,700 -532 Descending Kansas City Center
Fri 04:10:52 PM 38.4792 -89.3700 290° West 177 204 7,200 -339 Descending Kansas City Center
Fri 04:11:54 PM 38.4964 -89.4322 289° West 173 199 7,000 -242 Descending Kansas City Center
Fri 04:12:56 PM 38.5025 -89.4878 278° West 161 185 6,700 -435 Descending Kansas City Center
Fri 04:13:58 PM 38.5042 -89.5533 272° West 170 196 6,100 -532 Descending Kansas City Center
Fri 04:15:00 PM 38.5058 -89.6144 272° West 172 198 5,600 -435 Descending Kansas City Center
Fri 04:16:02 PM 38.5064 -89.6778 271° West 178 205 5,200 -432 Descending Kansas City Center
Fri 04:17:05 PM 38.5064 -89.7375 270° West 179 206 4,700 -480 Descending Kansas City Center
Fri 04:18:07 PM 38.5069 -89.8047 271° West 184 212 4,200 -339 Descending Kansas City Center
Fri 04:19:09 PM 38.5114 -89.8800 274° West 182 209 4,000 -97 Descending Kansas City Center
Fri 04:20:11 PM 38.5133 -89.9375 272° West 173 199 4,000  Level Kansas City Center
Fri 04:21:13 PM 38.5147 -89.9953 272° West 167 192 4,000  Level Kansas City Center
Fri 04:22:15 PM 38.5169 -90.0544 273° West 166 191 4,000  Level Kansas City Center
Fri 04:23:17 PM 38.5372 -90.1058 297° West 165 190 4,000  Level Kansas City Center
Fri 04:24:19 PM 38.5606 -90.1567 300° West 165 190 4,000  Level Kansas City Center
Fri 04:25:21 PM 38.5883 -90.2133 302° West 162 186 4,000  Level Kansas City Center
Fri 04:26:23 PM 38.6106 -90.2625 300° West 160 184 4,000 -290 Level Kansas City Center
Fri 04:27:25 PM 38.6336 -90.3114 301° West 160 184 3,400 -581 Descending Kansas City Center
Fri 04:28:27 PM 38.6583 -90.3633 301° West 164 189 2,800 -581 Descending Kansas City Center
Fri 04:29:29 PM 38.6847 -90.4192 301° West 170 196 2,200 -581 Descending Kansas City Center
Fri 04:30:31 PM 38.7100 -90.4725 301° West 172 198 1,600 -387 Descending Kansas City Center
Fri 04:31:33 PM 38.7367 -90.5131 310° West 162 186 1,400 -48 Descending Kansas City Center
Fri 04:32:35 PM 38.7081 -90.5289 203° Southwest 152 175 1,500 -290 Climbing Kansas City Center
Fri 04:33:37 PM 38.7072 -90.5022 92° East 126 145 800 -435 Descending Kansas City Center
Fri 04:34:39 PM 38.7272 -90.5117 340° North 112 129 600 -194 Descending Kansas City Center

Login

Don't have an account? Register now (free) for customized features, flight alerts, and more!